Time;durP1;ratioP1;P1;durP2;ratioP2;P2;SDS_P1;SDS_P2;PMS_P1;PMS_P2;Temp;Humidity;BMP_temperature;BMP_pressure;BME280_temperature;BME280_humidity;BME280_pressure;Samples;Min_cycle;Max_cycle;Signal;HPM_P1;HPM_P2
2021/01/15 00:00:27;;;;;;;56.40;42.25;;;;;;;5.07;62.88;100286.03;4935418;28;96644;-71
2021/01/15 00:02:55;;;;;;;56.78;41.63;;;;;;;5.04;63.13;100296.41;4935388;28;98664;-71
2021/01/15 00:05:21;;;;;;;55.75;42.22;;;;;;;5.15;62.78;100296.13;4935322;28;98477;-70
2021/01/15 00:07:48;;;;;;;56.25;42.33;;;;;;;5.19;62.47;100301.19;4935497;28;97022;-71
2021/01/15 00:10:14;;;;;;;52.20;38.75;;;;;;;5.25;62.03;100301.00;4936598;28;96640;-71
2021/01/15 00:12:40;;;;;;;70.97;44.05;;;;;;;5.25;62.98;100301.00;4935383;28;98604;-71
2021/01/15 00:15:07;;;;;;;60.17;43.83;;;;;;;5.36;62.57;100297.28;4935783;28;98380;-71
2021/01/15 00:17:34;;;;;;;58.17;43.55;;;;;;;5.43;62.14;100299.69;4936394;28;97068;-71
2021/01/15 00:20:01;;;;;;;60.47;43.55;;;;;;;5.38;62.34;100288.63;4935957;28;96905;-71
2021/01/15 00:22:27;;;;;;;58.78;43.90;;;;;;;4.97;63.69;100295.75;4936368;28;98665;-70
2021/01/15 00:24:53;;;;;;;56.88;42.60;;;;;;;4.96;63.87;100296.63;4935081;28;97486;-71
2021/01/15 00:27:20;;;;;;;54.42;43.45;;;;;;;4.89;63.75;100296.81;4934838;28;96978;-71
2021/01/15 00:29:46;;;;;;;60.28;41.95;;;;;;;4.79;64.70;100303.09;4935918;28;96582;-71
2021/01/15 00:32:13;;;;;;;67.07;45.05;;;;;;;4.97;63.61;100300.91;4933709;28;98471;-71
2021/01/15 00:34:39;;;;;;;62.10;46.08;;;;;;;4.93;63.49;100309.63;4935063;28;98768;-72
2021/01/15 00:37:06;;;;;;;57.20;43.60;;;;;;;4.97;63.92;100311.25;4935956;28;96521;-72
2021/01/15 00:39:32;;;;;;;57.08;43.50;;;;;;;5.05;63.76;100310.19;4935882;28;96912;-72
2021/01/15 00:41:58;;;;;;;57.60;45.05;;;;;;;5.13;63.47;100310.84;4935182;28;98640;-72
2021/01/15 00:44:25;;;;;;;68.68;50.85;;;;;;;5.00;63.40;100300.81;4935618;28;98577;-72
2021/01/15 00:46:54;;;;;;;63.90;49.50;;;;;;;4.85;63.49;100298.66;4935455;28;96728;-71
2021/01/15 00:49:21;;;;;;;65.90;51.42;;;;;;;4.94;64.02;100302.72;4934858;28;96746;-71
2021/01/15 00:51:53;;;;;;;67.45;49.50;;;;;;;5.08;62.97;100287.72;4915133;28;100375;-71
2021/01/15 00:54:24;;;;;;;65.13;49.47;;;;;;;4.95;63.97;100286.31;4916198;28;98568;-71
2021/01/15 00:56:57;;;;;;;65.85;52.33;;;;;;;4.95;63.76;100292.38;4915564;28;96616;-72
2021/01/15 00:59:25;;;;;;;68.22;49.42;;;;;;;4.75;64.47;100286.84;4931419;28;96494;-71
2021/01/15 01:02:02;;;;;;;64.88;50.90;;;;;;;4.59;65.17;100291.56;4929826;28;98681;-71
2021/01/15 01:04:30;;;;;;;73.60;50.80;;;;;;;4.71;64.81;100292.97;4914789;28;99939;-71
2021/01/15 01:06:57;;;;;;;61.08;49.35;;;;;;;4.81;64.08;100301.34;4914987;28;96761;-71
2021/01/15 01:09:25;;;;;;;64.63;50.72;;;;;;;4.91;63.70;100300.22;4915316;28;96992;-71
2021/01/15 01:11:51;;;;;;;59.10;47.00;;;;;;;5.08;63.06;100298.03;4927234;28;98673;-71
2021/01/15 01:14:18;;;;;;;69.53;49.58;;;;;;;4.82;64.13;100305.63;4934033;28;98648;-71
2021/01/15 01:16:44;;;;;;;71.30;52.30;;;;;;;4.87;63.96;100311.53;4925711;28;96633;-71
2021/01/15 01:19:11;;;;;;;63.75;50.03;;;;;;;4.92;63.69;100307.09;4932486;28;97078;-71
2021/01/15 01:21:37;;;;;;;65.43;50.15;;;;;;;4.86;64.54;100317.59;4929034;28;98658;-71
2021/01/15 01:24:04;;;;;;;66.00;51.78;;;;;;;4.72;64.67;100315.34;4912924;28;98636;-71
2021/01/15 01:26:30;;;;;;;72.03;48.60;;;;;;;4.63;64.86;100325.88;4914844;28;96756;-71
2021/01/15 01:28:56;;;;;;;70.28;49.13;;;;;;;4.78;64.56;100322.91;4917736;28;97069;-72
2021/01/15 01:31:23;;;;;;;65.28;50.72;;;;;;;4.76;64.12;100321.28;4933232;28;98753;-72
2021/01/15 01:33:49;;;;;;;66.18;47.63;;;;;;;4.86;63.78;100317.59;4933534;28;98528;-72
2021/01/15 01:36:16;;;;;;;65.60;49.35;;;;;;;4.76;64.69;100323.88;4929848;28;96871;-72
2021/01/15 01:38:42;;;;;;;71.43;51.53;;;;;;;4.72;64.36;100321.34;4931255;28;96877;-72
2021/01/15 01:41:09;;;;;;;71.43;51.58;;;;;;;4.76;64.55;100326.44;4932306;28;98473;-72
2021/01/15 01:43:35;;;;;;;63.58;49.90;;;;;;;4.75;64.61;100322.16;4933417;28;98673;-72
2021/01/15 01:46:03;;;;;;;61.58;49.45;;;;;;;4.80;64.30;100322.91;4934660;28;97873;-72
2021/01/15 01:48:31;;;;;;;64.65;49.30;;;;;;;4.80;64.58;100322.91;4931967;28;97422;-72
2021/01/15 01:50:57;;;;;;;86.05;48.67;;;;;;;4.82;64.16;100309.06;4907141;28;98481;-71
2021/01/15 01:53:26;;;;;;;65.43;49.65;;;;;;;4.91;63.63;100310.56;4933013;28;98703;-72
2021/01/15 01:55:52;;;;;;;66.07;48.00;;;;;;;4.81;63.95;100306.53;4916415;28;97196;-72
2021/01/15 01:58:18;;;;;;;69.38;48.63;;;;;;;4.83;64.31;100308.16;4917584;28;96722;-72
2021/01/15 02:00:46;;;;;;;66.90;48.92;;;;;;;4.76;64.21;100296.28;4920504;28;98668;-72
2021/01/15 02:03:16;;;;;;;62.65;47.70;;;;;;;4.83;64.60;100304.72;4932966;28;98661;-72
2021/01/15 02:05:43;;;;;;;71.57;50.58;;;;;;;4.75;64.91;100297.19;4932719;28;96733;-71
2021/01/15 02:08:09;;;;;;;58.72;48.55;;;;;;;4.72;65.14;100305.84;4932300;28;96989;-72
2021/01/15 02:10:44;;;;;;;64.82;48.47;;;;;;;4.85;64.54;100309.00;4930667;28;98669;-71
2021/01/15 02:13:16;;;;;;;;;;;;;;;4.76;65.16;100310.94;4916777;28;98422;-71
2021/01/15 02:15:44;;;;;;;59.42;45.58;;;;;;;4.81;64.58;100322.84;4933215;28;96989;-71
2021/01/15 02:18:18;;;;;;;63.40;49.97;;;;;;;4.80;64.84;100317.75;4933651;28;97125;-71
2021/01/15 02:21:22;;;;;;;62.60;47.60;;;;;;;4.87;64.57;100327.03;4932724;28;98769;-71
2021/01/15 02:23:49;;;;;;;58.67;44.45;;;;;;;4.90;64.73;100340.72;4931965;28;98481;-71
2021/01/15 02:26:21;;;;;;;69.70;48.13;;;;;;;4.82;64.85;100342.63;4932629;28;96788;-69
2021/01/15 02:29:00;;;;;;;63.70;50.22;;;;;;;4.88;64.80;100345.06;4933406;28;96712;-71
2021/01/15 02:31:42;;;;;;;64.97;47.50;;;;;;;4.84;64.71;100335.69;4934365;28;98909;-70
2021/01/15 02:34:35;;;;;;;62.10;49.28;;;;;;;5.00;63.91;100339.56;4933814;28;98662;-71
2021/01/15 02:37:15;;;;;;;65.38;47.65;;;;;;;4.98;64.10;100332.75;4933273;28;96580;-71
2021/01/15 02:40:06;;;;;;;62.80;47.97;;;;;;;5.04;63.97;100337.75;4916377;28;96608;-70
2021/01/15 02:42:35;;;;;;;64.63;48.80;;;;;;;5.01;63.83;100335.28;4930936;28;98484;-70
2021/01/15 02:45:04;;;;;;;59.72;46.70;;;;;;;4.83;64.49;100336.56;4912212;28;99991;-70
2021/01/15 02:47:46;;;;;;;61.88;48.35;;;;;;;4.84;64.64;100338.25;4930751;28;97367;-70
2021/01/15 02:50:15;;;;;;;62.45;46.35;;;;;;;4.75;64.79;100340.25;4932013;28;96591;-70
2021/01/15 02:52:42;;;;;;;66.82;47.35;;;;;;;4.73;65.10;100335.94;4933494;28;97589;-69
2021/01/15 02:55:10;;;;;;;62.15;46.78;;;;;;;4.66;65.26;100339.56;4932107;28;98402;-71
2021/01/15 02:57:36;;;;;;;64.40;49.08;;;;;;;4.77;64.64;100336.72;4917303;28;96764;-71
2021/01/15 03:00:08;;;;;;;63.47;47.80;;;;;;;4.84;64.65;100340.00;4932472;28;96805;-71
2021/01/15 03:02:58;;;;;;;67.45;50.22;;;;;;;4.71;65.11;100332.56;4930331;28;98404;-71
2021/01/15 03:05:31;;;;;;;64.38;46.38;;;;;;;4.83;64.49;100330.56;4930652;28;98386;-70
2021/01/15 03:08:00;;;;;;;69.20;48.80;;;;;;;4.67;65.24;100324.94;4931035;28;96926;-70
2021/01/15 03:10:26;;;;;;;58.85;47.60;;;;;;;4.81;64.70;100330.59;4927563;28;96832;-70
2021/01/15 03:12:53;;;;;;;58.95;47.72;;;;;;;4.79;64.86;100327.19;4912942;28;98667;-71
2021/01/15 03:15:19;;;;;;;68.53;48.00;;;;;;;4.82;64.58;100337.47;4912792;28;98679;-71
2021/01/15 03:17:48;;;;;;;59.28;44.50;;;;;;;4.75;64.98;100335.09;4931567;28;96842;-71
2021/01/15 03:20:14;;;;;;;57.67;45.30;;;;;;;4.78;64.81;100330.66;4930563;28;96649;-71
2021/01/15 03:22:47;;;;;;;59.78;45.70;;;;;;;4.73;65.17;100329.94;4913565;28;98454;-70
2021/01/15 03:25:14;;;;;;;58.03;42.28;;;;;;;4.90;64.46;100337.25;4915873;28;99052;-70
2021/01/15 03:27:44;;;;;;;60.03;45.35;;;;;;;4.92;64.23;100338.09;4932773;28;97004;-70
2021/01/15 03:30:13;;;;;;;58.95;42.88;;;;;;;4.88;64.44;100331.28;4935306;28;97205;-72
2021/01/15 03:32:39;;;;;;;62.53;46.00;;;;;;;4.85;64.88;100339.97;4937020;28;98549;-70
2021/01/15 03:35:06;;;;;;;56.30;44.47;;;;;;;4.89;64.45;100346.75;4934704;28;98794;-71
2021/01/15 03:37:34;;;;;;;56.55;45.60;;;;;;;4.72;65.21;100343.75;4935975;28;96938;-71
2021/01/15 03:40:01;;;;;;;58.33;43.85;;;;;;;4.72;65.62;100351.47;4929399;28;96738;-71
2021/01/15 03:42:27;;;;;;;56.72;45.40;;;;;;;4.80;64.74;100348.72;4917413;28;98727;-70
2021/01/15 03:44:54;;;;;;;57.95;43.75;;;;;;;4.76;65.42;100349.69;4930038;28;98612;-70
2021/01/15 03:47:20;;;;;;;56.22;44.30;;;;;;;4.67;65.64;100346.44;4915104;28;97056;-71
2021/01/15 03:49:46;;;;;;;55.53;41.03;;;;;;;4.89;64.88;100339.00;4924501;28;96727;-71
2021/01/15 03:52:13;;;;;;;61.42;44.00;;;;;;;4.84;64.99;100346.00;4914496;28;98687;-71
2021/01/15 03:54:39;;;;;;;54.95;42.13;;;;;;;4.76;65.49;100337.63;4915210;28;98807;-72
2021/01/15 03:57:05;;;;;;;51.92;40.42;;;;;;;4.85;64.95;100342.56;4914478;28;96655;-71
2021/01/15 03:59:32;;;;;;;53.15;42.33;;;;;;;4.98;64.47;100335.34;4928405;28;97471;-72
2021/01/15 04:01:58;;;;;;;56.05;44.72;;;;;;;4.96;64.28;100342.28;4934324;28;98519;-71
2021/01/15 04:04:25;;;;;;;58.63;42.25;;;;;;;4.73;65.73;100343.69;4934000;28;98729;-69
2021/01/15 04:06:51;;;;;;;59.55;42.22;;;;;;;4.91;64.88;100346.72;4935386;28;97004;-70
2021/01/15 04:09:18;;;;;;;55.80;40.80;;;;;;;4.79;65.09;100347.00;4931973;28;97858;-70
2021/01/15 04:11:44;;;;;;;60.33;44.90;;;;;;;4.87;64.87;100350.28;4934221;28;98666;-70
2021/01/15 04:14:10;;;;;;;55.88;44.35;;;;;;;4.80;65.41;100348.72;4926968;28;98752;-70
2021/01/15 04:16:36;;;;;;;51.33;41.72;;;;;;;4.82;65.25;100346.94;4915358;28;96799;-69
2021/01/15 04:19:03;;;;;;;57.13;43.08;;;;;;;4.84;65.38;100345.16;4919763;28;98847;-70
2021/01/15 04:21:29;;;;;;;54.55;43.08;;;;;;;4.77;65.29;100343.63;4935053;28;98861;-69
2021/01/15 04:23:56;;;;;;;58.20;42.80;;;;;;;4.87;65.45;100339.94;4933486;28;97524;-70
2021/01/15 04:26:22;;;;;;;51.88;39.55;;;;;;;4.80;65.51;100346.16;4933781;28;96903;-72
2021/01/15 04:28:51;;;;;;;55.25;42.72;;;;;;;4.83;65.04;100346.91;4933376;28;96781;-72
2021/01/15 04:31:20;;;;;;;53.78;41.05;;;;;;;4.91;65.31;100347.56;4915957;28;98586;-72
2021/01/15 04:33:47;;;;;;;58.30;40.40;;;;;;;4.96;64.97;100334.53;4914363;28;97839;-72
2021/01/15 04:36:13;;;;;;;53.10;41.63;;;;;;;4.94;64.69;100346.63;4916643;28;96995;-72
2021/01/15 04:38:40;;;;;;;54.50;40.78;;;;;;;4.97;64.88;100346.56;4925665;28;96826;-72
2021/01/15 04:41:07;;;;;;;54.80;39.78;;;;;;;4.99;65.31;100342.19;4916886;28;98702;-73
2021/01/15 04:43:36;;;;;;;57.17;44.20;;;;;;;4.89;65.25;100341.56;4914689;28;98770;-72
2021/01/15 04:46:03;;;;;;;48.03;38.88;;;;;;;4.73;65.92;100341.09;4922003;28;97459;-72
2021/01/15 04:48:33;;;;;;;55.22;41.63;;;;;;;4.79;65.60;100336.69;4933093;28;97092;-72
2021/01/15 04:51:01;;;;;;;49.67;40.42;;;;;;;4.87;65.26;100339.94;4932904;28;96841;-72
2021/01/15 04:53:28;;;;;;;56.25;40.63;;;;;;;4.85;65.55;100336.56;4925337;28;98535;-73
2021/01/15 04:55:59;;;;;;;55.53;42.53;;;;;;;4.85;65.30;100328.81;4914196;28;96843;-72
2021/01/15 04:58:26;;;;;;;54.13;42.67;;;;;;;4.82;65.50;100327.13;4922089;28;96596;-71
2021/01/15 05:00:57;;;;;;;55.00;40.35;;;;;;;4.81;65.75;100332.34;4931110;28;99493;-71
2021/01/15 05:03:25;;;;;;;51.78;42.28;;;;;;;4.83;65.75;100338.31;4927235;28;98470;-71
2021/01/15 05:05:58;;;;;;;53.35;41.22;;;;;;;4.78;66.01;100335.00;4915901;28;96559;-71
2021/01/15 05:08:28;;;;;;;55.03;43.00;;;;;;;4.65;66.17;100334.44;4912762;28;97491;-71
2021/01/15 05:10:55;;;;;;;54.90;42.13;;;;;;;4.76;66.31;100339.34;4914890;28;98478;-71
2021/01/15 05:13:22;;;;;;;52.45;39.72;;;;;;;4.81;65.82;100345.25;4913304;28;98599;-73
2021/01/15 05:15:49;;;;;;;55.58;40.95;;;;;;;4.69;66.43;100344.69;4915142;28;96741;-72
2021/01/15 05:18:17;;;;;;;58.70;40.63;;;;;;;4.54;66.67;100349.34;4927436;28;97685;-72
2021/01/15 05:20:44;;;;;;;54.58;41.30;;;;;;;4.73;66.25;100345.44;4912856;28;98677;-72
2021/01/15 05:23:11;;;;;;;54.33;40.00;;;;;;;4.77;66.05;100356.53;4912901;28;98605;-73
2021/01/15 05:25:45;;;;;;;58.30;41.20;;;;;;;4.68;66.36;100350.69;4915012;28;96943;-73
2021/01/15 05:28:13;;;;;;;;;;;;;;;4.82;65.73;100354.69;4921458;28;96683;-73
2021/01/15 05:30:41;;;;;;;53.80;38.83;;;;;;;4.85;65.96;100357.22;4930037;28;98512;-73
2021/01/15 05:33:12;;;;;;;51.78;39.25;;;;;;;4.67;66.33;100350.75;4932967;28;98544;-73
2021/01/15 05:35:51;;;;;;;50.92;37.22;;;;;;;4.78;65.91;100353.91;4928855;28;96635;-73
2021/01/15 05:38:18;;;;;;;52.53;40.13;;;;;;;4.70;66.44;100358.44;4920819;28;98821;-73
2021/01/15 05:40:57;;;;;;;50.40;38.90;;;;;;;4.78;65.64;100360.81;4925081;28;98635;-73
2021/01/15 05:43:41;;;;;;;53.22;40.33;;;;;;;4.67;66.13;100358.50;4925699;28;98423;-73
2021/01/15 05:46:18;;;;;;;52.13;38.35;;;;;;;4.77;65.97;100365.13;4902335;28;96821;-73
2021/01/15 05:48:55;;;;;;;57.45;40.30;;;;;;;4.83;65.75;100371.88;4923383;28;96678;-73
2021/01/15 05:51:24;;;;;;;51.67;40.88;;;;;;;4.76;65.98;100384.09;4915739;28;98704;-73
2021/01/15 05:53:50;;;;;;;52.10;39.97;;;;;;;4.73;65.79;100384.16;4913152;28;98600;-72
2021/01/15 05:56:18;;;;;;;49.38;39.60;;;;;;;4.58;66.11;100379.34;4926137;28;96639;-73
2021/01/15 05:59:10;;;;;;;49.55;38.30;;;;;;;4.61;66.23;100395.63;4932105;28;96926;-73
2021/01/15 06:01:39;;;;;;;49.38;38.67;;;;;;;4.60;66.38;100404.28;4919348;28;98672;-72
2021/01/15 06:04:06;;;;;;;50.30;40.85;;;;;;;4.51;66.50;100394.16;4928830;28;98570;-73
2021/01/15 06:06:32;;;;;;;57.83;43.65;;;;;;;4.53;66.40;100397.56;4932269;28;96806;-72
2021/01/15 06:08:59;;;;;;;55.30;41.60;;;;;;;4.66;65.83;100400.69;4931152;28;96913;-72
2021/01/15 06:11:26;;;;;;;53.67;42.22;;;;;;;4.54;65.95;100404.41;4934413;28;98441;-72
2021/01/15 06:13:52;;;;;;;59.67;43.35;;;;;;;4.46;66.60;100402.00;4931528;28;100325;-73
2021/01/15 06:16:19;;;;;;;56.60;41.72;;;;;;;4.49;66.65;100405.41;4933290;28;96717;-72
2021/01/15 06:19:03;;;;;;;55.65;40.60;;;;;;;4.57;66.42;100408.66;4931873;28;96870;-71
2021/01/15 06:21:31;;;;;;;55.25;43.30;;;;;;;4.45;66.71;100412.34;4933671;28;98478;-70
2021/01/15 06:24:08;;;;;;;57.00;43.70;;;;;;;4.50;66.40;100413.09;4931818;28;98393;-72
2021/01/15 06:26:36;;;;;;;51.17;40.00;;;;;;;4.56;66.48;100415.53;4933946;28;96542;-72
2021/01/15 06:29:04;;;;;;;52.10;43.65;;;;;;;4.60;66.35;100401.69;4931396;28;96669;-73
2021/01/15 06:31:44;;;;;;;49.20;38.15;;;;;;;4.55;66.56;100413.00;4933078;28;98525;-73
2021/01/15 06:34:11;;;;;;;52.80;40.05;;;;;;;4.59;66.61;100419.81;4931857;28;98525;-72
2021/01/15 06:36:52;;;;;;;55.17;42.85;;;;;;;4.61;66.35;100423.19;4933744;28;96619;-72
2021/01/15 06:39:19;;;;;;;54.30;40.58;;;;;;;4.48;66.95;100430.38;4926141;28;97096;-71
2021/01/15 06:41:46;;;;;;;52.15;42.13;;;;;;;4.60;66.80;100432.66;4923400;28;98302;-70
2021/01/15 06:44:14;;;;;;;52.13;40.78;;;;;;;4.65;66.72;100425.69;4931742;28;98367;-71
2021/01/15 06:46:45;;;;;;;51.97;40.33;;;;;;;4.87;65.82;100425.19;4933705;28;97131;-71
2021/01/15 06:49:18;;;;;;;57.30;43.08;;;;;;;4.80;65.96;100424.47;4934091;28;97979;-73
2021/01/15 06:51:55;;;;;;;59.47;40.13;;;;;;;4.77;66.30;100419.38;4931228;28;98728;-75
2021/01/15 06:54:34;;;;;;;62.42;41.80;;;;;;;4.84;66.08;100422.66;4929626;28;98540;-73
2021/01/15 06:57:13;;;;;;;54.08;42.67;;;;;;;4.73;66.68;100418.59;4932521;28;96723;-72
2021/01/15 06:59:41;;;;;;;49.88;38.80;;;;;;;4.89;65.95;100420.81;4935766;28;96494;-69
2021/01/15 07:02:28;;;;;;;56.33;43.92;;;;;;;4.90;65.99;100419.91;4927236;28;98605;-69
2021/01/15 07:04:59;;;;;;;52.00;40.80;;;;;;;4.88;65.99;100422.53;4950188;28;98566;-70
2021/01/15 07:07:28;;;;;;;53.17;42.30;;;;;;;4.87;66.07;100417.44;4937487;28;96542;-70
2021/01/15 07:09:55;;;;;;;49.70;40.08;;;;;;;4.99;65.77;100424.88;4937337;28;96647;-71
2021/01/15 07:12:22;;;;;;;54.20;40.70;;;;;;;4.88;65.89;100416.53;4928071;28;98692;-71
2021/01/15 07:14:56;;;;;;;53.88;43.55;;;;;;;4.91;66.12;100413.88;4933619;28;98524;-65
2021/01/15 07:17:28;;;;;;;53.88;41.13;;;;;;;4.83;66.58;100414.06;4930079;28;96792;-68
2021/01/15 07:20:04;;;;;;;48.83;38.28;;;;;;;4.96;66.13;100420.66;4931603;28;96586;-66
2021/01/15 07:22:43;;;;;;;55.53;41.80;;;;;;;4.98;65.70;100420.59;4931785;28;98540;-68
2021/01/15 07:25:13;;;;;;;57.83;41.65;;;;;;;5.11;65.51;100434.91;4931205;28;98554;-67
2021/01/15 07:27:40;;;;;;;57.50;41.75;;;;;;;5.03;65.81;100441.16;4933394;28;97563;-69
2021/01/15 07:30:29;;;;;;;54.28;39.92;;;;;;;5.04;65.50;100440.25;4933252;28;97808;-74
2021/01/15 07:32:56;;;;;;;55.70;42.50;;;;;;;5.10;65.58;100446.13;4930818;28;98688;-73
2021/01/15 07:35:25;;;;;;;55.25;40.78;;;;;;;5.26;65.06;100436.25;4928207;28;98513;-68
2021/01/15 07:38:08;;;;;;;57.85;42.97;;;;;;;5.21;65.38;100432.94;4923627;28;96551;-68
2021/01/15 07:40:34;;;;;;;56.17;42.90;;;;;;;5.25;65.39;100440.59;4908167;28;96907;-70
2021/01/15 07:43:02;;;;;;;56.22;41.28;;;;;;;5.15;66.00;100454.63;4911149;28;98620;-69
2021/01/15 07:45:31;;;;;;;53.92;42.10;;;;;;;5.19;65.26;100456.25;4909339;28;98633;-62
2021/01/15 07:48:01;;;;;;;54.70;41.00;;;;;;;5.27;65.22;100456.03;4908997;28;97135;-63
2021/01/15 07:50:36;;;;;;;53.42;41.40;;;;;;;5.19;65.14;100456.25;4907196;28;96743;-63
2021/01/15 07:53:06;;;;;;;57.95;42.92;;;;;;;5.30;65.42;100457.72;4906789;28;98618;-64
2021/01/15 07:55:51;;;;;;;56.38;43.30;;;;;;;5.48;64.76;100458.09;4911383;28;98543;-65
2021/01/15 07:58:19;;;;;;;50.88;41.10;;;;;;;5.58;64.11;100457.84;4911575;28;97532;-65
2021/01/15 08:00:46;;;;;;;50.78;42.38;;;;;;;5.74;63.77;100475.50;4911107;28;96500;-66
2021/01/15 08:03:13;;;;;;;56.22;43.22;;;;;;;5.95;63.28;100468.09;4910081;28;98481;-66
2021/01/15 08:05:40;;;;;;;51.42;38.72;;;;;;;6.02;62.90;100470.50;4906970;28;98522;-67
2021/01/15 08:08:10;;;;;;;52.78;38.88;;;;;;;6.03;63.07;100479.09;4912471;28;96976;-63
2021/01/15 08:10:50;;;;;;;56.00;43.63;;;;;;;6.09;62.82;100481.53;4913998;28;96954;-64
2021/01/15 08:13:34;;;;;;;58.22;41.70;;;;;;;6.21;62.32;100485.50;4913625;28;98423;-65
2021/01/15 08:16:04;;;;;;;51.10;37.95;;;;;;;6.37;61.86;100483.31;4913625;28;98452;-66
2021/01/15 08:18:30;;;;;;;52.28;39.97;;;;;;;6.32;61.58;100493.81;4911066;28;97902;-67
2021/01/15 08:20:57;;;;;;;46.45;37.75;;;;;;;6.37;61.40;100491.09;4908793;28;97422;-72
2021/01/15 08:23:25;;;;;;;47.47;38.33;;;;;;;6.47;61.43;100492.53;4911960;28;98613;-72
2021/01/15 08:26:08;;;;;;;49.88;38.35;;;;;;;6.58;60.99;100495.66;4914684;28;97521;-72
2021/01/15 08:28:34;;;;;;;49.83;37.53;;;;;;;6.52;61.08;100499.25;4905309;28;97014;-70
2021/01/15 08:31:03;;;;;;;53.63;40.08;;;;;;;6.52;61.02;100501.84;4909438;28;97240;-72
2021/01/15 08:33:29;;;;;;;49.88;39.00;;;;;;;6.68;60.46;100494.47;4908658;28;98441;-73
2021/01/15 08:36:00;;;;;;;51.67;39.17;;;;;;;6.72;60.39;100503.88;4909987;28;98560;-72
2021/01/15 08:38:37;;;;;;;51.22;38.45;;;;;;;7.06;59.59;100508.00;4916611;28;97010;-74
2021/01/15 08:41:13;;;;;;;46.50;36.28;;;;;;;7.14;59.02;100511.22;4910427;28;96867;-75
2021/01/15 08:43:40;;;;;;;49.75;36.13;;;;;;;7.13;58.69;100514.69;4909442;28;98485;-72
2021/01/15 08:46:06;;;;;;;39.72;32.17;;;;;;;7.33;58.25;100517.50;4913207;28;98524;-71
2021/01/15 08:48:32;;;;;;;37.53;30.25;;;;;;;7.39;57.34;100518.19;4916704;28;96478;-70
2021/01/15 08:51:08;;;;;;;39.50;29.40;;;;;;;7.33;57.64;100521.84;4915527;28;96674;-72
2021/01/15 08:54:10;;;;;;;38.85;27.95;;;;;;;7.31;57.63;100521.03;4915645;28;98520;-72
2021/01/15 08:56:32;;;;;;;33.30;23.33;;;;;;;7.15;57.66;100518.09;4912368;28;98601;-76
2021/01/15 08:58:58;;;;;;;30.83;24.20;;;;;;;7.19;56.95;100524.88;4916348;28;96522;-74
2021/01/15 09:01:29;;;;;;;28.88;22.58;;;;;;;7.19;56.60;100532.66;4915504;28;96783;-74
2021/01/15 09:03:57;;;;;;;37.75;27.13;;;;;;;7.25;56.73;100534.22;4900061;28;98516;-72
2021/01/15 09:06:24;;;;;;;29.08;22.52;;;;;;;7.30;56.08;100533.16;4893946;28;98738;-73
2021/01/15 09:08:54;;;;;;;26.10;20.30;;;;;;;7.37;55.51;100538.16;4895240;28;96969;-75
2021/01/15 09:11:30;;;;;;;31.10;21.77;;;;;;;7.21;56.30;100536.03;4911211;28;96881;-71
2021/01/15 09:13:57;;;;;;;35.80;26.90;;;;;;;7.29;56.49;100541.81;4913901;28;98471;-72
2021/01/15 09:16:25;;;;;;;37.08;27.02;;;;;;;7.20;56.50;100552.50;4912218;28;98730;-73
2021/01/15 09:18:56;;;;;;;34.85;25.40;;;;;;;7.19;57.11;100557.72;4914263;28;96988;-71
2021/01/15 09:21:22;;;;;;;33.97;25.27;;;;;;;7.31;56.48;100559.94;4913812;28;96691;-75
2021/01/15 09:23:49;;;;;;;32.22;22.85;;;;;;;7.18;56.30;100553.44;4912436;28;98439;-70
2021/01/15 09:26:19;;;;;;;26.73;20.65;;;;;;;7.17;55.82;100562.97;4900867;28;99242;-73
2021/01/15 09:28:45;;;;;;;29.85;24.38;;;;;;;7.10;56.62;100558.88;4894650;28;96790;-73
2021/01/15 09:31:12;;;;;;;29.60;23.75;;;;;;;6.91;57.30;100570.66;4893763;28;96806;-73
2021/01/15 09:33:50;;;;;;;31.08;23.02;;;;;;;6.92;58.04;100567.19;4907225;28;98747;-73
2021/01/15 09:36:20;;;;;;;35.60;27.50;;;;;;;6.91;58.35;100562.91;4910388;28;98596;-74
2021/01/15 09:38:46;;;;;;;39.22;26.50;;;;;;;6.89;57.85;100564.69;4893661;28;97060;-73
2021/01/15 09:41:13;;;;;;;43.33;29.58;;;;;;;6.65;58.69;100569.69;4892769;28;96811;-73
2021/01/15 09:43:41;;;;;;;34.90;26.17;;;;;;;6.58;58.82;100583.72;4908320;28;98590;-72
2021/01/15 09:46:08;;;;;;;25.65;21.13;;;;;;;6.65;57.47;100584.38;4931457;28;98912;-74
2021/01/15 09:48:35;;;;;;;32.20;20.77;;;;;;;6.67;57.22;100578.28;4915894;28;96813;-71
2021/01/15 09:51:01;;;;;;;29.55;22.10;;;;;;;6.82;57.43;100589.94;4913762;28;96680;-71
2021/01/15 09:53:28;;;;;;;29.77;22.10;;;;;;;6.66;57.35;100586.06;4913252;28;99353;-72
2021/01/15 09:55:54;;;;;;;27.63;21.90;;;;;;;6.59;57.88;100590.59;4907537;28;98875;-70
2021/01/15 09:58:21;;;;;;;28.58;23.83;;;;;;;6.53;58.44;100588.16;4910958;28;97170;-72
2021/01/15 10:00:47;;;;;;;33.83;24.90;;;;;;;6.53;58.47;100590.75;4907024;28;96864;-72
2021/01/15 10:03:14;;;;;;;30.02;23.48;;;;;;;6.63;58.55;100586.19;4899726;28;97386;-69
2021/01/15 10:05:40;;;;;;;27.75;20.92;;;;;;;6.52;58.40;100584.72;4903234;28;98508;-70
2021/01/15 10:08:07;;;;;;;27.63;21.15;;;;;;;6.71;58.15;100590.25;4899466;28;97551;-71
2021/01/15 10:10:33;;;;;;;34.72;21.17;;;;;;;6.65;57.82;100593.00;4896191;28;96810;-69
2021/01/15 10:12:59;;;;;;;29.20;21.58;;;;;;;6.25;58.84;100580.31;4897045;28;98781;-70
2021/01/15 10:15:26;;;;;;;25.67;20.92;;;;;;;6.47;58.33;100580.56;4910612;28;98470;-69
2021/01/15 10:17:52;;;;;;;30.45;20.45;;;;;;;6.49;58.38;100595.16;4912864;28;96974;-70
2021/01/15 10:20:20;;;;;;;29.10;20.38;;;;;;;6.63;57.52;100594.78;4895415;28;96819;-69
2021/01/15 10:22:46;;;;;;;24.30;15.82;;;;;;;6.46;57.57;100590.09;4894386;28;98976;-70
2021/01/15 10:25:13;;;;;;;23.00;17.35;;;;;;;6.57;57.19;100588.03;4906912;28;98732;-70
2021/01/15 10:27:39;;;;;;;25.17;18.45;;;;;;;6.67;57.30;100592.97;4912573;28;97147;-69
2021/01/15 10:30:06;;;;;;;27.08;19.63;;;;;;;6.66;58.27;100586.94;4911304;28;96657;-70
2021/01/15 10:32:32;;;;;;;27.95;20.42;;;;;;;6.67;57.36;100582.63;4911852;28;98512;-70
2021/01/15 10:35:00;;;;;;;27.38;18.67;;;;;;;6.52;58.12;100583.88;4911772;28;98811;-69
2021/01/15 10:37:26;;;;;;;21.58;18.58;;;;;;;6.57;57.43;100582.03;4913318;28;96944;-67
2021/01/15 10:39:53;;;;;;;20.60;17.23;;;;;;;6.46;57.88;100581.47;4901105;28;97349;-71
2021/01/15 10:42:19;;;;;;;24.88;18.35;;;;;;;6.68;57.86;100584.31;4897208;28;98461;-68
2021/01/15 10:44:45;;;;;;;27.35;19.25;;;;;;;6.57;57.80;100584.63;4916459;28;98498;-71
2021/01/15 10:47:14;;;;;;;28.05;18.80;;;;;;;6.66;58.05;100584.34;4914734;28;96889;-69
2021/01/15 10:49:41;;;;;;;23.95;19.35;;;;;;;6.59;58.40;100580.22;4902792;28;96851;-72
2021/01/15 10:52:12;;;;;;;21.92;18.20;;;;;;;6.71;58.18;100582.50;4898657;28;98437;-72
2021/01/15 10:54:38;;;;;;;24.30;20.00;;;;;;;6.76;58.41;100572.81;4892570;28;98480;-70
2021/01/15 10:57:05;;;;;;;25.05;19.67;;;;;;;6.84;57.76;100570.00;4902775;28;96706;-70
2021/01/15 10:59:31;;;;;;;28.45;19.58;;;;;;;6.81;58.08;100565.75;4907834;28;97900;-72
2021/01/15 11:01:58;;;;;;;24.40;17.63;;;;;;;6.78;58.02;100560.69;4902577;28;98398;-70
2021/01/15 11:04:24;;;;;;;21.58;16.60;;;;;;;6.88;58.22;100557.81;4905564;28;98499;-71
2021/01/15 11:06:54;;;;;;;18.40;16.40;;;;;;;7.00;57.52;100553.09;4907197;28;96568;-71
2021/01/15 11:09:22;;;;;;;24.90;17.80;;;;;;;6.98;57.16;100556.66;4912372;28;96651;-71
2021/01/15 11:12:06;;;;;;;;;;;;;;;6.92;57.40;100547.28;4895425;28;98502;-73
2021/01/15 11:14:32;;;;;;;19.48;14.50;;;;;;;6.96;57.09;100548.06;4903501;28;98587;-68
2021/01/15 11:16:58;;;;;;;24.67;15.23;;;;;;;6.90;57.51;100548.25;4901653;28;96925;-70
2021/01/15 11:19:25;;;;;;;20.30;15.20;;;;;;;6.84;57.41;100544.09;4903165;28;97550;-72
2021/01/15 11:21:51;;;;;;;19.08;15.52;;;;;;;6.91;57.11;100539.56;4906370;28;98671;-72
2021/01/15 11:24:18;;;;;;;25.15;16.45;;;;;;;6.86;57.20;100541.47;4901147;28;98617;-74
2021/01/15 11:26:45;;;;;;;23.10;15.30;;;;;;;6.91;57.33;100544.75;4901628;28;96970;-71